CheckWX is a tool to help pilots better visualize weather data.  It is not intended as a substitute for an official pre-flight weather briefing.

02:33:38 UTC

EGLC METAR
London City Airport
London, United Kingdom
Current

14 mins ago

EGLC 230220Z AUTO 24007KT 200V270 9999 OVC029 10/07 Q1028
Observed
Mar-23 @ 02:20 UTC
Wind
  • 240° at 7 KTS
Visibility
10,000+ meters
Flight Rules
MVFR
Cloud Levels
  • Overcast at 2,900' AGL
Temperature
10°C / 50°F
Dewpoint
C / 45°F
Humidity
82%
Altimeter
30.35" Hg
Pressure
1027.92 hPa
Previous

44 mins ago

EGLC 230150Z AUTO 24006KT 9999 BKN031 10/07 Q1028
Observed
Mar-23 @ 01:50 UTC
Wind
  • 240° at 6 KTS
Visibility
10,000+ meters
Flight Rules
VFR
Cloud Levels
  • Broken at 3,100' AGL
Temperature
10°C / 50°F
Dewpoint
C / 45°F
Humidity
82%
Altimeter
30.35" Hg
Pressure
1027.92 hPa
Previous

1 hour ago

EGLC 230120Z AUTO 24006KT 9999 BKN031 10/07 Q1028
Observed
Mar-23 @ 01:20 UTC
Wind
  • 240° at 6 KTS
Visibility
10,000+ meters
Flight Rules
VFR
Cloud Levels
  • Broken at 3,100' AGL
Temperature
10°C / 50°F
Dewpoint
C / 45°F
Humidity
82%
Altimeter
30.35" Hg
Pressure
1027.92 hPa